sensor_id;sensor_type;location;lat;lon;timestamp;P1;durP1;ratioP1;P2;durP2;ratioP2
75090;SDS011;63674;48.048;8.306;2024-03-08T00:00:53;34.90;;;15.27;;
75090;SDS011;63674;48.048;8.306;2024-03-08T00:03:22;34.92;;;14.30;;
75090;SDS011;63674;48.048;8.306;2024-03-08T00:05:50;34.05;;;14.88;;
75090;SDS011;63674;48.048;8.306;2024-03-08T00:08:20;31.10;;;13.57;;
75090;SDS011;63674;48.048;8.306;2024-03-08T00:10:49;35.08;;;15.00;;
75090;SDS011;63674;48.048;8.306;2024-03-08T00:13:18;34.58;;;15.10;;
75090;SDS011;63674;48.048;8.306;2024-03-08T00:15:46;32.25;;;14.02;;
75090;SDS011;63674;48.048;8.306;2024-03-08T00:18:15;36.33;;;14.63;;
75090;SDS011;63674;48.048;8.306;2024-03-08T00:20:43;34.03;;;14.60;;
75090;SDS011;63674;48.048;8.306;2024-03-08T00:23:12;30.25;;;13.55;;
75090;SDS011;63674;48.048;8.306;2024-03-08T00:25:43;34.38;;;15.38;;
75090;SDS011;63674;48.048;8.306;2024-03-08T00:28:12;35.05;;;15.25;;
75090;SDS011;63674;48.048;8.306;2024-03-08T00:30:43;32.45;;;14.40;;
75090;SDS011;63674;48.048;8.306;2024-03-08T00:33:13;31.70;;;14.02;;
75090;SDS011;63674;48.048;8.306;2024-03-08T00:35:41;32.63;;;14.60;;
75090;SDS011;63674;48.048;8.306;2024-03-08T00:38:10;32.83;;;14.10;;
75090;SDS011;63674;48.048;8.306;2024-03-08T00:40:39;30.83;;;13.50;;
75090;SDS011;63674;48.048;8.306;2024-03-08T00:43:09;31.27;;;13.68;;
75090;SDS011;63674;48.048;8.306;2024-03-08T00:45:39;32.83;;;14.05;;
75090;SDS011;63674;48.048;8.306;2024-03-08T00:48:09;35.83;;;16.25;;
75090;SDS011;63674;48.048;8.306;2024-03-08T00:50:38;37.20;;;17.77;;
75090;SDS011;63674;48.048;8.306;2024-03-08T00:53:06;34.58;;;14.65;;
75090;SDS011;63674;48.048;8.306;2024-03-08T00:55:37;34.28;;;14.68;;
75090;SDS011;63674;48.048;8.306;2024-03-08T00:58:06;33.80;;;15.35;;
75090;SDS011;63674;48.048;8.306;2024-03-08T01:00:37;33.53;;;14.63;;
75090;SDS011;63674;48.048;8.306;2024-03-08T01:03:05;32.42;;;14.13;;
75090;SDS011;63674;48.048;8.306;2024-03-08T01:05:34;29.05;;;13.18;;
75090;SDS011;63674;48.048;8.306;2024-03-08T01:08:03;34.03;;;14.23;;
75090;SDS011;63674;48.048;8.306;2024-03-08T01:10:32;33.42;;;13.93;;
75090;SDS011;63674;48.048;8.306;2024-03-08T01:13:01;30.63;;;13.45;;
75090;SDS011;63674;48.048;8.306;2024-03-08T01:15:29;30.15;;;13.20;;
75090;SDS011;63674;48.048;8.306;2024-03-08T01:17:59;33.25;;;14.07;;
75090;SDS011;63674;48.048;8.306;2024-03-08T01:20:28;31.98;;;13.52;;
75090;SDS011;63674;48.048;8.306;2024-03-08T01:22:57;26.98;;;12.30;;
75090;SDS011;63674;48.048;8.306;2024-03-08T01:25:26;27.67;;;11.80;;
75090;SDS011;63674;48.048;8.306;2024-03-08T01:27:54;27.83;;;11.35;;
75090;SDS011;63674;48.048;8.306;2024-03-08T01:30:23;24.63;;;11.25;;
75090;SDS011;63674;48.048;8.306;2024-03-08T01:32:51;25.95;;;11.40;;
75090;SDS011;63674;48.048;8.306;2024-03-08T01:35:22;26.20;;;11.25;;
75090;SDS011;63674;48.048;8.306;2024-03-08T01:37:50;26.55;;;11.48;;
75090;SDS011;63674;48.048;8.306;2024-03-08T01:40:19;25.95;;;11.68;;
75090;SDS011;63674;48.048;8.306;2024-03-08T01:42:49;26.15;;;11.35;;
75090;SDS011;63674;48.048;8.306;2024-03-08T01:45:17;27.15;;;11.68;;
75090;SDS011;63674;48.048;8.306;2024-03-08T01:47:46;27.13;;;12.00;;
75090;SDS011;63674;48.048;8.306;2024-03-08T01:50:15;26.23;;;11.77;;
75090;SDS011;63674;48.048;8.306;2024-03-08T01:52:45;26.98;;;12.27;;
75090;SDS011;63674;48.048;8.306;2024-03-08T01:55:13;27.90;;;11.52;;
75090;SDS011;63674;48.048;8.306;2024-03-08T01:57:42;25.13;;;11.20;;
75090;SDS011;63674;48.048;8.306;2024-03-08T02:00:11;27.92;;;11.93;;
75090;SDS011;63674;48.048;8.306;2024-03-08T02:02:43;26.58;;;11.60;;
75090;SDS011;63674;48.048;8.306;2024-03-08T02:05:13;25.98;;;11.32;;
75090;SDS011;63674;48.048;8.306;2024-03-08T02:07:42;25.95;;;10.65;;
75090;SDS011;63674;48.048;8.306;2024-03-08T02:10:12;27.65;;;12.15;;
75090;SDS011;63674;48.048;8.306;2024-03-08T02:12:41;25.65;;;11.85;;
75090;SDS011;63674;48.048;8.306;2024-03-08T02:15:10;27.80;;;11.32;;
75090;SDS011;63674;48.048;8.306;2024-03-08T02:17:39;27.23;;;11.43;;
75090;SDS011;63674;48.048;8.306;2024-03-08T02:20:08;26.70;;;11.75;;
75090;SDS011;63674;48.048;8.306;2024-03-08T02:23:00;24.50;;;11.40;;
75090;SDS011;63674;48.048;8.306;2024-03-08T02:25:47;27.20;;;12.23;;
75090;SDS011;63674;48.048;8.306;2024-03-08T02:28:34;25.67;;;11.07;;
75090;SDS011;63674;48.048;8.306;2024-03-08T02:31:22;24.33;;;10.80;;
75090;SDS011;63674;48.048;8.306;2024-03-08T02:34:09;25.35;;;11.27;;
75090;SDS011;63674;48.048;8.306;2024-03-08T02:36:56;23.25;;;10.70;;
75090;SDS011;63674;48.048;8.306;2024-03-08T02:39:45;25.70;;;11.55;;
75090;SDS011;63674;48.048;8.306;2024-03-08T02:42:32;25.13;;;10.90;;
75090;SDS011;63674;48.048;8.306;2024-03-08T02:45:19;25.77;;;11.38;;
75090;SDS011;63674;48.048;8.306;2024-03-08T02:48:06;24.23;;;11.02;;
75090;SDS011;63674;48.048;8.306;2024-03-08T02:50:54;25.67;;;11.10;;
75090;SDS011;63674;48.048;8.306;2024-03-08T02:53:42;27.58;;;11.52;;
75090;SDS011;63674;48.048;8.306;2024-03-08T02:56:31;25.90;;;10.60;;
75090;SDS011;63674;48.048;8.306;2024-03-08T02:59:20;25.05;;;11.02;;
75090;SDS011;63674;48.048;8.306;2024-03-08T03:02:08;25.27;;;10.30;;
75090;SDS011;63674;48.048;8.306;2024-03-08T03:04:57;25.23;;;10.70;;
75090;SDS011;63674;48.048;8.306;2024-03-08T03:07:47;23.92;;;9.95;;
75090;SDS011;63674;48.048;8.306;2024-03-08T03:10:34;24.75;;;10.75;;
75090;SDS011;63674;48.048;8.306;2024-03-08T03:13:23;27.02;;;11.23;;
75090;SDS011;63674;48.048;8.306;2024-03-08T03:16:10;30.15;;;11.40;;
75090;SDS011;63674;48.048;8.306;2024-03-08T03:19:03;28.17;;;11.75;;
75090;SDS011;63674;48.048;8.306;2024-03-08T03:21:50;26.00;;;11.05;;
75090;SDS011;63674;48.048;8.306;2024-03-08T03:24:38;26.45;;;11.80;;
75090;SDS011;63674;48.048;8.306;2024-03-08T03:27:25;28.65;;;10.85;;
75090;SDS011;63674;48.048;8.306;2024-03-08T03:30:13;28.48;;;11.93;;
75090;SDS011;63674;48.048;8.306;2024-03-08T03:33:06;29.08;;;11.52;;
75090;SDS011;63674;48.048;8.306;2024-03-08T03:35:54;29.90;;;11.90;;
75090;SDS011;63674;48.048;8.306;2024-03-08T03:38:42;26.92;;;11.77;;
75090;SDS011;63674;48.048;8.306;2024-03-08T03:41:29;27.02;;;11.35;;
75090;SDS011;63674;48.048;8.306;2024-03-08T03:44:16;27.50;;;11.73;;
75090;SDS011;63674;48.048;8.306;2024-03-08T03:47:05;28.92;;;12.02;;
75090;SDS011;63674;48.048;8.306;2024-03-08T03:49:52;24.98;;;10.77;;
75090;SDS011;63674;48.048;8.306;2024-03-08T03:52:40;26.10;;;10.80;;
75090;SDS011;63674;48.048;8.306;2024-03-08T03:55:28;26.98;;;11.65;;
75090;SDS011;63674;48.048;8.306;2024-03-08T03:58:15;25.73;;;11.00;;
75090;SDS011;63674;48.048;8.306;2024-03-08T04:01:07;26.02;;;10.80;;
75090;SDS011;63674;48.048;8.306;2024-03-08T04:03:57;24.83;;;10.73;;
75090;SDS011;63674;48.048;8.306;2024-03-08T04:06:44;26.52;;;11.40;;
75090;SDS011;63674;48.048;8.306;2024-03-08T04:09:31;27.80;;;11.07;;
75090;SDS011;63674;48.048;8.306;2024-03-08T04:12:18;25.67;;;10.65;;
75090;SDS011;63674;48.048;8.306;2024-03-08T04:15:05;25.20;;;10.32;;
75090;SDS011;63674;48.048;8.306;2024-03-08T04:17:56;26.08;;;10.57;;
75090;SDS011;63674;48.048;8.306;2024-03-08T04:20:47;25.10;;;10.73;;
75090;SDS011;63674;48.048;8.306;2024-03-08T04:23:34;24.38;;;10.90;;
75090;SDS011;63674;48.048;8.306;2024-03-08T04:26:22;25.83;;;11.45;;
75090;SDS011;63674;48.048;8.306;2024-03-08T04:29:08;25.90;;;10.57;;
75090;SDS011;63674;48.048;8.306;2024-03-08T04:31:56;28.73;;;11.30;;
75090;SDS011;63674;48.048;8.306;2024-03-08T04:34:43;25.67;;;11.10;;
75090;SDS011;63674;48.048;8.306;2024-03-08T04:37:32;25.50;;;10.80;;
75090;SDS011;63674;48.048;8.306;2024-03-08T04:40:19;27.02;;;12.02;;
75090;SDS011;63674;48.048;8.306;2024-03-08T04:42:47;25.67;;;11.05;;
75090;SDS011;63674;48.048;8.306;2024-03-08T04:45:17;27.40;;;11.13;;
75090;SDS011;63674;48.048;8.306;2024-03-08T04:47:46;25.42;;;10.07;;
75090;SDS011;63674;48.048;8.306;2024-03-08T04:50:15;26.20;;;11.93;;
75090;SDS011;63674;48.048;8.306;2024-03-08T04:52:46;24.67;;;10.48;;
75090;SDS011;63674;48.048;8.306;2024-03-08T04:55:15;22.20;;;10.00;;
75090;SDS011;63674;48.048;8.306;2024-03-08T04:57:47;25.67;;;10.35;;
75090;SDS011;63674;48.048;8.306;2024-03-08T05:00:16;24.40;;;11.18;;
75090;SDS011;63674;48.048;8.306;2024-03-08T05:02:45;27.58;;;10.88;;
75090;SDS011;63674;48.048;8.306;2024-03-08T05:05:14;27.63;;;11.35;;
75090;SDS011;63674;48.048;8.306;2024-03-08T05:07:43;26.45;;;11.70;;
75090;SDS011;63674;48.048;8.306;2024-03-08T05:10:13;28.17;;;11.60;;
75090;SDS011;63674;48.048;8.306;2024-03-08T05:12:44;25.67;;;11.05;;
75090;SDS011;63674;48.048;8.306;2024-03-08T05:15:12;23.88;;;10.35;;
75090;SDS011;63674;48.048;8.306;2024-03-08T05:17:41;25.85;;;10.23;;
75090;SDS011;63674;48.048;8.306;2024-03-08T05:20:10;24.50;;;10.40;;
75090;SDS011;63674;48.048;8.306;2024-03-08T05:22:40;25.85;;;10.57;;
75090;SDS011;63674;48.048;8.306;2024-03-08T05:25:08;25.58;;;10.95;;
75090;SDS011;63674;48.048;8.306;2024-03-08T05:27:40;25.15;;;10.38;;
75090;SDS011;63674;48.048;8.306;2024-03-08T05:30:08;26.50;;;11.25;;
75090;SDS011;63674;48.048;8.306;2024-03-08T05:32:42;24.95;;;10.13;;
75090;SDS011;63674;48.048;8.306;2024-03-08T05:35:12;29.40;;;11.00;;
75090;SDS011;63674;48.048;8.306;2024-03-08T05:37:43;25.88;;;10.23;;
75090;SDS011;63674;48.048;8.306;2024-03-08T05:40:11;27.75;;;11.45;;
75090;SDS011;63674;48.048;8.306;2024-03-08T05:42:46;24.90;;;10.63;;
75090;SDS011;63674;48.048;8.306;2024-03-08T05:45:14;26.50;;;10.52;;
75090;SDS011;63674;48.048;8.306;2024-03-08T05:47:43;23.30;;;9.77;;
75090;SDS011;63674;48.048;8.306;2024-03-08T05:50:12;24.23;;;10.77;;
75090;SDS011;63674;48.048;8.306;2024-03-08T05:52:42;23.02;;;10.32;;
75090;SDS011;63674;48.048;8.306;2024-03-08T05:55:11;25.40;;;11.30;;
75090;SDS011;63674;48.048;8.306;2024-03-08T05:57:40;25.30;;;10.63;;
75090;SDS011;63674;48.048;8.306;2024-03-08T06:00:11;27.17;;;11.05;;
75090;SDS011;63674;48.048;8.306;2024-03-08T06:02:42;22.48;;;9.23;;
75090;SDS011;63674;48.048;8.306;2024-03-08T06:05:11;24.77;;;9.70;;
75090;SDS011;63674;48.048;8.306;2024-03-08T06:07:39;24.25;;;9.43;;
75090;SDS011;63674;48.048;8.306;2024-03-08T06:10:08;22.65;;;9.43;;
75090;SDS011;63674;48.048;8.306;2024-03-08T06:12:39;22.20;;;9.30;;
75090;SDS011;63674;48.048;8.306;2024-03-08T06:15:09;22.38;;;9.68;;
75090;SDS011;63674;48.048;8.306;2024-03-08T06:17:41;69.18;;;28.05;;
75090;SDS011;63674;48.048;8.306;2024-03-08T06:20:11;119.43;;;43.50;;
75090;SDS011;63674;48.048;8.306;2024-03-08T06:22:40;69.60;;;33.13;;
75090;SDS011;63674;48.048;8.306;2024-03-08T06:25:09;25.38;;;11.70;;
75090;SDS011;63674;48.048;8.306;2024-03-08T06:27:40;25.27;;;11.30;;
75090;SDS011;63674;48.048;8.306;2024-03-08T06:30:11;24.10;;;10.27;;
75090;SDS011;63674;48.048;8.306;2024-03-08T06:32:42;25.08;;;9.90;;
75090;SDS011;63674;48.048;8.306;2024-03-08T06:35:11;24.35;;;10.10;;
75090;SDS011;63674;48.048;8.306;2024-03-08T06:37:42;25.05;;;10.45;;
75090;SDS011;63674;48.048;8.306;2024-03-08T06:40:11;22.55;;;9.23;;
75090;SDS011;63674;48.048;8.306;2024-03-08T06:42:41;23.05;;;9.98;;
75090;SDS011;63674;48.048;8.306;2024-03-08T06:45:11;26.75;;;11.52;;
75090;SDS011;63674;48.048;8.306;2024-03-08T06:47:42;37.20;;;17.85;;
75090;SDS011;63674;48.048;8.306;2024-03-08T06:50:10;34.33;;;15.48;;
75090;SDS011;63674;48.048;8.306;2024-03-08T06:52:41;29.40;;;13.27;;
75090;SDS011;63674;48.048;8.306;2024-03-08T06:55:11;24.50;;;10.77;;
75090;SDS011;63674;48.048;8.306;2024-03-08T06:57:39;34.42;;;14.88;;
75090;SDS011;63674;48.048;8.306;2024-03-08T07:00:09;30.35;;;12.63;;
75090;SDS011;63674;48.048;8.306;2024-03-08T07:02:45;29.23;;;12.35;;
75090;SDS011;63674;48.048;8.306;2024-03-08T07:05:15;25.63;;;11.30;;
75090;SDS011;63674;48.048;8.306;2024-03-08T07:07:44;47.85;;;16.52;;
75090;SDS011;63674;48.048;8.306;2024-03-08T07:10:15;61.45;;;22.38;;
75090;SDS011;63674;48.048;8.306;2024-03-08T07:12:43;65.40;;;23.77;;
75090;SDS011;63674;48.048;8.306;2024-03-08T07:15:14;55.80;;;20.65;;
75090;SDS011;63674;48.048;8.306;2024-03-08T07:17:46;87.97;;;29.50;;
75090;SDS011;63674;48.048;8.306;2024-03-08T07:20:15;83.25;;;32.58;;
75090;SDS011;63674;48.048;8.306;2024-03-08T07:22:45;57.60;;;24.67;;
75090;SDS011;63674;48.048;8.306;2024-03-08T07:25:17;30.92;;;12.50;;
75090;SDS011;63674;48.048;8.306;2024-03-08T07:27:48;23.05;;;9.68;;
75090;SDS011;63674;48.048;8.306;2024-03-08T07:30:19;21.55;;;9.40;;
75090;SDS011;63674;48.048;8.306;2024-03-08T07:33:09;38.50;;;14.85;;
75090;SDS011;63674;48.048;8.306;2024-03-08T07:35:40;49.55;;;22.15;;
75090;SDS011;63674;48.048;8.306;2024-03-08T07:38:11;37.70;;;16.98;;
75090;SDS011;63674;48.048;8.306;2024-03-08T07:40:39;31.05;;;13.93;;
75090;SDS011;63674;48.048;8.306;2024-03-08T07:43:11;24.50;;;10.32;;
75090;SDS011;63674;48.048;8.306;2024-03-08T07:45:41;22.33;;;9.70;;
75090;SDS011;63674;48.048;8.306;2024-03-08T07:48:09;22.67;;;9.45;;
75090;SDS011;63674;48.048;8.306;2024-03-08T07:50:40;23.45;;;9.40;;
75090;SDS011;63674;48.048;8.306;2024-03-08T07:53:08;26.27;;;12.52;;
75090;SDS011;63674;48.048;8.306;2024-03-08T07:55:38;25.25;;;11.00;;
75090;SDS011;63674;48.048;8.306;2024-03-08T07:58:09;28.05;;;12.88;;
75090;SDS011;63674;48.048;8.306;2024-03-08T08:00:38;30.20;;;13.60;;
75090;SDS011;63674;48.048;8.306;2024-03-08T08:03:09;26.42;;;12.77;;
75090;SDS011;63674;48.048;8.306;2024-03-08T08:05:39;26.83;;;12.57;;
75090;SDS011;63674;48.048;8.306;2024-03-08T08:08:08;22.02;;;9.75;;
75090;SDS011;63674;48.048;8.306;2024-03-08T08:10:38;24.23;;;9.85;;
75090;SDS011;63674;48.048;8.306;2024-03-08T08:13:06;22.02;;;9.10;;
75090;SDS011;63674;48.048;8.306;2024-03-08T08:15:35;21.63;;;9.13;;
75090;SDS011;63674;48.048;8.306;2024-03-08T08:18:05;20.85;;;8.60;;
75090;SDS011;63674;48.048;8.306;2024-03-08T08:20:36;26.23;;;9.25;;
75090;SDS011;63674;48.048;8.306;2024-03-08T08:23:05;31.13;;;13.60;;
75090;SDS011;63674;48.048;8.306;2024-03-08T08:25:33;25.67;;;10.68;;
75090;SDS011;63674;48.048;8.306;2024-03-08T08:28:02;23.60;;;9.95;;
75090;SDS011;63674;48.048;8.306;2024-03-08T08:30:31;20.15;;;9.30;;
75090;SDS011;63674;48.048;8.306;2024-03-08T08:33:00;19.88;;;8.52;;
75090;SDS011;63674;48.048;8.306;2024-03-08T08:35:33;20.33;;;9.52;;
75090;SDS011;63674;48.048;8.306;2024-03-08T08:38:01;19.50;;;8.88;;
75090;SDS011;63674;48.048;8.306;2024-03-08T08:40:31;19.58;;;8.90;;
75090;SDS011;63674;48.048;8.306;2024-03-08T08:42:59;20.38;;;9.55;;
75090;SDS011;63674;48.048;8.306;2024-03-08T08:45:30;22.05;;;9.90;;
75090;SDS011;63674;48.048;8.306;2024-03-08T08:47:59;17.50;;;8.13;;
75090;SDS011;63674;48.048;8.306;2024-03-08T08:50:28;19.67;;;8.88;;
75090;SDS011;63674;48.048;8.306;2024-03-08T08:52:57;18.70;;;8.45;;
75090;SDS011;63674;48.048;8.306;2024-03-08T08:55:26;17.02;;;7.40;;
75090;SDS011;63674;48.048;8.306;2024-03-08T08:57:55;18.08;;;7.95;;
75090;SDS011;63674;48.048;8.306;2024-03-08T09:00:24;17.92;;;8.05;;
75090;SDS011;63674;48.048;8.306;2024-03-08T09:02:54;20.58;;;9.25;;
75090;SDS011;63674;48.048;8.306;2024-03-08T09:05:25;17.42;;;8.23;;
75090;SDS011;63674;48.048;8.306;2024-03-08T09:07:54;14.75;;;6.85;;
75090;SDS011;63674;48.048;8.306;2024-03-08T09:10:24;18.38;;;8.20;;
75090;SDS011;63674;48.048;8.306;2024-03-08T09:12:56;19.45;;;8.82;;
75090;SDS011;63674;48.048;8.306;2024-03-08T09:15:26;25.85;;;11.82;;
75090;SDS011;63674;48.048;8.306;2024-03-08T09:17:56;19.77;;;9.52;;
75090;SDS011;63674;48.048;8.306;2024-03-08T09:20:25;17.83;;;8.33;;
75090;SDS011;63674;48.048;8.306;2024-03-08T09:22:55;17.13;;;7.57;;
75090;SDS011;63674;48.048;8.306;2024-03-08T09:25:25;16.40;;;7.40;;
75090;SDS011;63674;48.048;8.306;2024-03-08T09:27:55;17.25;;;7.13;;
75090;SDS011;63674;48.048;8.306;2024-03-08T09:30:23;20.10;;;9.00;;
75090;SDS011;63674;48.048;8.306;2024-03-08T09:32:52;26.47;;;13.87;;
75090;SDS011;63674;48.048;8.306;2024-03-08T09:35:23;17.50;;;7.53;;
75090;SDS011;63674;48.048;8.306;2024-03-08T09:37:52;20.50;;;8.65;;
75090;SDS011;63674;48.048;8.306;2024-03-08T09:40:22;19.40;;;9.00;;
75090;SDS011;63674;48.048;8.306;2024-03-08T09:42:54;26.55;;;12.75;;
75090;SDS011;63674;48.048;8.306;2024-03-08T09:45:24;25.52;;;11.18;;
75090;SDS011;63674;48.048;8.306;2024-03-08T09:47:56;19.23;;;9.30;;
75090;SDS011;63674;48.048;8.306;2024-03-08T09:50:24;22.02;;;9.45;;
75090;SDS011;63674;48.048;8.306;2024-03-08T09:52:54;21.73;;;10.20;;
75090;SDS011;63674;48.048;8.306;2024-03-08T09:55:26;24.17;;;11.73;;
75090;SDS011;63674;48.048;8.306;2024-03-08T09:58:00;21.48;;;9.77;;
75090;SDS011;63674;48.048;8.306;2024-03-08T10:01:03;21.05;;;7.90;;
75090;SDS011;63674;48.048;8.306;2024-03-08T10:03:33;19.27;;;8.23;;
75090;SDS011;63674;48.048;8.306;2024-03-08T10:06:02;15.68;;;7.15;;
75090;SDS011;63674;48.048;8.306;2024-03-08T10:08:32;16.38;;;7.22;;
75090;SDS011;63674;48.048;8.306;2024-03-08T10:11:03;17.00;;;8.17;;
75090;SDS011;63674;48.048;8.306;2024-03-08T10:13:32;17.70;;;7.47;;
75090;SDS011;63674;48.048;8.306;2024-03-08T10:16:00;17.60;;;7.20;;
75090;SDS011;63674;48.048;8.306;2024-03-08T10:18:29;17.58;;;7.40;;
75090;SDS011;63674;48.048;8.306;2024-03-08T10:21:04;15.68;;;7.07;;
75090;SDS011;63674;48.048;8.306;2024-03-08T10:23:36;16.53;;;7.50;;
75090;SDS011;63674;48.048;8.306;2024-03-08T10:26:13;17.10;;;6.70;;
75090;SDS011;63674;48.048;8.306;2024-03-08T10:28:42;15.93;;;6.65;;
75090;SDS011;63674;48.048;8.306;2024-03-08T10:31:14;14.75;;;6.00;;
75090;SDS011;63674;48.048;8.306;2024-03-08T10:33:45;14.80;;;6.88;;
75090;SDS011;63674;48.048;8.306;2024-03-08T10:36:14;15.23;;;6.43;;
75090;SDS011;63674;48.048;8.306;2024-03-08T10:38:43;12.45;;;5.65;;
75090;SDS011;63674;48.048;8.306;2024-03-08T10:41:16;16.33;;;6.90;;
75090;SDS011;63674;48.048;8.306;2024-03-08T10:43:50;15.80;;;6.35;;
75090;SDS011;63674;48.048;8.306;2024-03-08T10:46:38;16.67;;;6.82;;
75090;SDS011;63674;48.048;8.306;2024-03-08T10:49:25;13.50;;;5.83;;
75090;SDS011;63674;48.048;8.306;2024-03-08T10:52:02;14.20;;;6.25;;
75090;SDS011;63674;48.048;8.306;2024-03-08T10:54:36;14.02;;;6.30;;
75090;SDS011;63674;48.048;8.306;2024-03-08T10:57:11;15.27;;;6.22;;
75090;SDS011;63674;48.048;8.306;2024-03-08T10:59:41;13.65;;;5.97;;
75090;SDS011;63674;48.048;8.306;2024-03-08T11:02:11;14.23;;;5.83;;
75090;SDS011;63674;48.048;8.306;2024-03-08T11:04:45;15.98;;;6.00;;
75090;SDS011;63674;48.048;8.306;2024-03-08T11:07:15;14.00;;;6.07;;
75090;SDS011;63674;48.048;8.306;2024-03-08T11:09:45;14.48;;;6.55;;
75090;SDS011;63674;48.048;8.306;2024-03-08T11:12:21;14.02;;;6.05;;
75090;SDS011;63674;48.048;8.306;2024-03-08T11:14:58;13.30;;;6.23;;
75090;SDS011;63674;48.048;8.306;2024-03-08T11:17:40;13.02;;;5.55;;
75090;SDS011;63674;48.048;8.306;2024-03-08T11:20:15;11.90;;;5.55;;
75090;SDS011;63674;48.048;8.306;2024-03-08T11:22:49;21.33;;;9.70;;
75090;SDS011;63674;48.048;8.306;2024-03-08T11:25:35;26.85;;;8.35;;
75090;SDS011;63674;48.048;8.306;2024-03-08T11:28:11;15.77;;;7.03;;
75090;SDS011;63674;48.048;8.306;2024-03-08T11:30:45;15.95;;;6.32;;
75090;SDS011;63674;48.048;8.306;2024-03-08T11:33:15;20.58;;;8.82;;
75090;SDS011;63674;48.048;8.306;2024-03-08T11:35:45;25.05;;;10.25;;
75090;SDS011;63674;48.048;8.306;2024-03-08T11:38:15;20.20;;;7.80;;
75090;SDS011;63674;48.048;8.306;2024-03-08T11:40:45;36.37;;;14.83;;
75090;SDS011;63674;48.048;8.306;2024-03-08T11:43:18;18.05;;;7.68;;
75090;SDS011;63674;48.048;8.306;2024-03-08T11:45:47;15.25;;;6.63;;
75090;SDS011;63674;48.048;8.306;2024-03-08T11:48:16;23.48;;;9.77;;
75090;SDS011;63674;48.048;8.306;2024-03-08T11:50:44;18.58;;;8.80;;
75090;SDS011;63674;48.048;8.306;2024-03-08T11:53:15;15.50;;;7.10;;
75090;SDS011;63674;48.048;8.306;2024-03-08T11:55:44;16.33;;;6.78;;
75090;SDS011;63674;48.048;8.306;2024-03-08T11:58:15;14.52;;;6.57;;
75090;SDS011;63674;48.048;8.306;2024-03-08T12:00:45;13.90;;;6.22;;
75090;SDS011;63674;48.048;8.306;2024-03-08T12:03:14;12.93;;;5.78;;
75090;SDS011;63674;48.048;8.306;2024-03-08T12:05:42;12.40;;;6.00;;
75090;SDS011;63674;48.048;8.306;2024-03-08T12:08:12;12.07;;;5.40;;
75090;SDS011;63674;48.048;8.306;2024-03-08T12:10:41;12.30;;;5.65;;
75090;SDS011;63674;48.048;8.306;2024-03-08T12:13:10;12.98;;;5.80;;
75090;SDS011;63674;48.048;8.306;2024-03-08T12:15:41;15.02;;;6.43;;
75090;SDS011;63674;48.048;8.306;2024-03-08T12:18:12;15.73;;;6.37;;
75090;SDS011;63674;48.048;8.306;2024-03-08T12:20:40;12.75;;;6.10;;
75090;SDS011;63674;48.048;8.306;2024-03-08T12:23:15;11.85;;;5.47;;
75090;SDS011;63674;48.048;8.306;2024-03-08T12:25:44;11.27;;;5.28;;
75090;SDS011;63674;48.048;8.306;2024-03-08T12:28:14;11.27;;;5.35;;
75090;SDS011;63674;48.048;8.306;2024-03-08T12:30:45;13.10;;;5.80;;
75090;SDS011;63674;48.048;8.306;2024-03-08T12:33:19;12.40;;;5.95;;
75090;SDS011;63674;48.048;8.306;2024-03-08T12:35:52;12.10;;;5.63;;
75090;SDS011;63674;48.048;8.306;2024-03-08T12:38:23;11.93;;;5.78;;
75090;SDS011;63674;48.048;8.306;2024-03-08T12:40:55;10.15;;;4.75;;
75090;SDS011;63674;48.048;8.306;2024-03-08T12:43:26;13.03;;;6.13;;
75090;SDS011;63674;48.048;8.306;2024-03-08T12:45:57;13.88;;;6.40;;
75090;SDS011;63674;48.048;8.306;2024-03-08T12:48:27;12.05;;;5.93;;
75090;SDS011;63674;48.048;8.306;2024-03-08T12:50:56;12.80;;;6.45;;
75090;SDS011;63674;48.048;8.306;2024-03-08T12:53:24;10.95;;;5.18;;
75090;SDS011;63674;48.048;8.306;2024-03-08T12:55:55;12.23;;;5.33;;
75090;SDS011;63674;48.048;8.306;2024-03-08T12:58:24;11.55;;;5.45;;
75090;SDS011;63674;48.048;8.306;2024-03-08T13:00:53;12.30;;;6.00;;
75090;SDS011;63674;48.048;8.306;2024-03-08T13:03:22;10.75;;;5.03;;
75090;SDS011;63674;48.048;8.306;2024-03-08T13:05:52;10.65;;;5.38;;
75090;SDS011;63674;48.048;8.306;2024-03-08T13:08:23;12.07;;;4.87;;
75090;SDS011;63674;48.048;8.306;2024-03-08T13:10:54;11.77;;;4.45;;
75090;SDS011;63674;48.048;8.306;2024-03-08T13:13:23;9.88;;;4.22;;
75090;SDS011;63674;48.048;8.306;2024-03-08T13:15:51;10.73;;;4.60;;
75090;SDS011;63674;48.048;8.306;2024-03-08T13:18:23;10.00;;;4.40;;
75090;SDS011;63674;48.048;8.306;2024-03-08T13:20:52;12.50;;;5.50;;
75090;SDS011;63674;48.048;8.306;2024-03-08T13:23:21;10.23;;;4.63;;
75090;SDS011;63674;48.048;8.306;2024-03-08T13:25:49;10.23;;;4.80;;
75090;SDS011;63674;48.048;8.306;2024-03-08T13:28:18;10.65;;;5.18;;
75090;SDS011;63674;48.048;8.306;2024-03-08T13:30:50;10.95;;;4.93;;
75090;SDS011;63674;48.048;8.306;2024-03-08T13:33:24;11.53;;;5.37;;
75090;SDS011;63674;48.048;8.306;2024-03-08T13:35:55;9.95;;;4.47;;
75090;SDS011;63674;48.048;8.306;2024-03-08T13:38:31;12.95;;;4.78;;
75090;SDS011;63674;48.048;8.306;2024-03-08T13:41:00;9.95;;;4.80;;
75090;SDS011;63674;48.048;8.306;2024-03-08T13:43:30;8.77;;;4.38;;
75090;SDS011;63674;48.048;8.306;2024-03-08T13:46:01;12.20;;;5.70;;
75090;SDS011;63674;48.048;8.306;2024-03-08T13:48:31;12.70;;;5.68;;
75090;SDS011;63674;48.048;8.306;2024-03-08T13:51:01;13.27;;;4.88;;
75090;SDS011;63674;48.048;8.306;2024-03-08T13:53:29;10.30;;;5.07;;
75090;SDS011;63674;48.048;8.306;2024-03-08T13:55:59;11.68;;;4.85;;
75090;SDS011;63674;48.048;8.306;2024-03-08T13:58:28;12.83;;;5.47;;
75090;SDS011;63674;48.048;8.306;2024-03-08T14:00:56;12.63;;;5.70;;
75090;SDS011;63674;48.048;8.306;2024-03-08T14:03:26;15.40;;;6.68;;
75090;SDS011;63674;48.048;8.306;2024-03-08T14:05:55;12.00;;;5.80;;
75090;SDS011;63674;48.048;8.306;2024-03-08T14:08:26;11.32;;;4.53;;
75090;SDS011;63674;48.048;8.306;2024-03-08T14:10:55;10.57;;;4.87;;
75090;SDS011;63674;48.048;8.306;2024-03-08T14:13:23;15.88;;;6.90;;
75090;SDS011;63674;48.048;8.306;2024-03-08T14:15:52;10.73;;;5.28;;
75090;SDS011;63674;48.048;8.306;2024-03-08T14:18:20;13.15;;;5.72;;
75090;SDS011;63674;48.048;8.306;2024-03-08T14:20:49;8.77;;;4.20;;
75090;SDS011;63674;48.048;8.306;2024-03-08T14:23:18;9.00;;;4.47;;
75090;SDS011;63674;48.048;8.306;2024-03-08T14:25:50;10.57;;;4.88;;
75090;SDS011;63674;48.048;8.306;2024-03-08T14:28:19;9.90;;;4.93;;
75090;SDS011;63674;48.048;8.306;2024-03-08T14:30:49;9.43;;;4.75;;
75090;SDS011;63674;48.048;8.306;2024-03-08T14:33:19;9.80;;;5.07;;
75090;SDS011;63674;48.048;8.306;2024-03-08T14:35:47;9.60;;;4.50;;
75090;SDS011;63674;48.048;8.306;2024-03-08T14:38:16;10.07;;;4.85;;
75090;SDS011;63674;48.048;8.306;2024-03-08T14:40:44;10.20;;;4.88;;
75090;SDS011;63674;48.048;8.306;2024-03-08T14:43:16;9.93;;;4.85;;
75090;SDS011;63674;48.048;8.306;2024-03-08T14:45:46;9.82;;;4.72;;
75090;SDS011;63674;48.048;8.306;2024-03-08T14:48:15;13.33;;;6.73;;
75090;SDS011;63674;48.048;8.306;2024-03-08T14:50:43;12.50;;;5.93;;
75090;SDS011;63674;48.048;8.306;2024-03-08T14:53:14;10.38;;;4.65;;
75090;SDS011;63674;48.048;8.306;2024-03-08T14:55:43;10.05;;;4.50;;
75090;SDS011;63674;48.048;8.306;2024-03-08T14:58:15;10.55;;;5.00;;
75090;SDS011;63674;48.048;8.306;2024-03-08T15:00:44;12.00;;;5.93;;